Latest Weather Observations for Blackwater Airport

IDQ60801

Issued at 10:05 pm EST Monday 24 November 2014 (issued every 30 minutes, with the page automatically refreshed every 10 minutes)

About weather observations | Map of weather stations | Latest weather observations for QLD | Other Formats
Station Details ID: 035134 Name: BLACKWATER AIRPORT Lat: -23.60 Lon: 148.81 Height: 192.95 m
Data from the previous 72 hours. | See also: Recent months at Blackwater Airport
Date/Time
EST
Temp
°C
App
Temp
°C
Dew
Point
Rel
Hum
%
Delta-T
°C
Wind Press
QNH
hPa
Press
MSL
hPa
Rain
since 9 am
mm
Dir
 
Spd
km/h
Gust
km/h
Spd
kts
Gust
kts
24/10:00pm 24.6 23.4 18.3 68 4.0 NE 22 30 12 16 1015.0 1013.8 0.0
24/09:30pm 25.1 23.5 18.3 66 4.3 NE 24 37 13 20 1015.0 1013.8 0.0
24/09:00pm 25.4 24.1 18.1 64 4.6 NNE 22 32 12 17 1014.7 1013.5 0.0
24/08:30pm 26.1 24.4 18.0 61 5.2 NE 24 35 13 19 1014.1 1012.9 0.0
24/08:00pm 27.0 25.5 17.8 57 5.9 NE 22 32 12 17 1013.6 1012.5 0.0
24/07:30pm 28.0 25.3 17.5 52 6.7 NE 28 39 15 21 1012.9 1011.8 0.0
24/07:00pm 29.4 26.6 17.2 47 7.8 NE 28 39 15 21 1012.2 1011.1 0.0
24/06:30pm 30.7 27.7 16.7 43 8.9 NNE 28 37 15 20 1011.5 1010.4 0.0
24/06:00pm 32.8 30.9 12.9 29 12.0 NE 15 20 8 11 1011.0 1009.9 0.0
24/05:30pm 33.5 31.1 12.5 28 12.6 ENE 17 24 9 13 1010.6 1009.5 0.0
24/05:00pm 34.0 31.7 12.9 28 12.8 ENE 17 32 9 17 1010.5 1009.3 0.0
24/04:30pm 34.3 31.5 13.2 28 12.9 NE 20 33 11 18 1010.6 1009.5 0.0
24/04:00pm 34.4 31.1 12.7 27 13.1 ENE 22 32 12 17 1010.6 1009.5 0.0
24/03:30pm 33.6 30.6 12.6 28 12.7 ENE 20 30 11 16 1011.0 1009.9 0.0
24/03:00pm 33.6 31.7 13.1 29 12.5 ESE 15 20 8 11 1011.4 1010.3 0.0
24/02:30pm 34.2 31.0 13.1 28 12.8 E 22 32 12 17 1011.8 1010.7 0.0
24/02:00pm 34.1 30.7 12.4 26 13.1 NE 22 41 12 22 1012.3 1011.2 0.0
24/01:30pm 34.1 31.4 13.0 28 12.8 NE 19 32 10 17 1013.1 1012.0 0.0
24/01:00pm 33.4 30.4 12.4 28 12.6 ENE 20 30 11 16 1013.7 1012.6 0.0
24/12:30pm 33.5 30.4 14.5 31 11.8 ENE 24 33 13 18 1014.2 1013.0 0.0
24/12:00pm 31.5 28.9 13.7 33 10.8 ENE 20 33 11 18 1014.7 1013.5 0.0
24/11:30am 30.6 29.3 14.7 38 9.8 NNE 15 30 8 16 1015.3 1014.2 0.0
24/11:00am 30.5 28.9 15.0 39 9.6 ENE 17 35 9 19 1015.9 1014.8 0.0
24/10:30am 28.7 27.2 15.2 43 8.3 E 17 26 9 14 1016.6 1015.5 0.0
24/10:00am 29.9 28.9 16.7 45 8.3 ENE 17 28 9 15 1017.0 1015.9 0.0
24/09:30am 27.7 25.9 16.0 49 7.3 NNE 20 26 11 14 1017.2 1016.1 0.0
24/09:00am 27.3 25.7 16.6 52 6.7 NE 20 30 11 16 1017.5 1016.4 0.0
24/08:30am 27.1 26.1 16.7 53 6.5 NE 17 28 9 15 1017.4 1016.3 0.0
24/08:00am 26.4 25.7 18.3 61 5.2 NE 19 28 10 15 1017.5 1016.4 0.0
24/07:30am 24.9 24.1 17.9 65 4.4 NE 19 24 10 13 1017.4 1016.3 0.0
24/07:00am 24.2 24.0 18.4 70 3.7 ENE 17 24 9 13 1017.3 1016.2 0.0
24/06:30am 23.3 23.6 18.8 76 2.9 ENE 15 20 8 11 1016.9 1015.8 0.0
24/06:00am 22.3 22.6 18.7 80 2.3 ENE 15 20 8 11 1016.8 1015.7 0.0
24/05:30am 21.3 21.1 18.5 84 1.8 ENE 17 20 9 11 1016.5 1015.4 0.0
24/05:00am 20.8 21.3 18.4 86 1.5 ENE 13 20 7 11 1016.3 1015.2 0.0
24/04:30am 20.6 21.0 18.2 86 1.5 E 13 17 7 9 1016.1 1015.0 0.0
24/04:00am 20.8 21.2 18.2 85 1.6 E 13 17 7 9 1015.9 1014.8 0.0
24/03:30am 21.2 21.3 18.4 84 1.8 E 15 20 8 11 1015.7 1014.6 0.0
24/03:00am 21.2 21.5 18.8 86 1.5 ENE 15 19 8 10 1015.5 1014.4 0.0
24/02:30am 21.6 21.5 18.8 84 1.8 ENE 17 22 9 12 1015.6 1014.5 0.0
24/02:00am 21.8 21.6 18.6 82 2.0 NE 17 22 9 12 1015.7 1014.6 0.0
24/01:30am 22.1 23.5 18.7 81 2.2 NE 9 15 5 8 1015.9 1014.8 0.0
24/01:00am 22.5 24.1 18.3 77 2.6 NE 7 11 4 6 1015.8 1014.7 0.0
24/12:30am 23.4 25.1 18.5 74 3.1 N 7 11 4 6 1016.1 1015.0 0.0
24/12:00am 23.5 24.0 18.4 73 3.2 NNE 13 20 7 11 1016.2 1015.1 0.0
 
Date/Time
EST
Temp
°C
App
Temp
°C
Dew
Point
Rel
Hum
%
Delta-T
°C
Wind Press
QNH
hPa
Press
MSL
hPa
Rain
since 9 am
mm
Dir
 
Spd
km/h
Gust
km/h
Spd
kts
Gust
kts
23/11:30pm 24.1 23.4 18.3 70 3.7 NE 19 24 10 13 1016.4 1015.3 0.0
23/11:00pm 24.6 23.4 18.5 69 3.9 NE 22 33 12 18 1016.1 1015.0 0.0
23/10:30pm 24.9 24.4 19.0 69 3.8 NE 20 32 11 17 1015.9 1014.8 0.0
23/10:00pm 25.4 25.1 19.1 68 4.1 NE 19 32 10 17 1015.9 1014.8 0.0
23/09:30pm 26.0 25.5 19.2 66 4.4 NE 20 30 11 16 1015.4 1014.3 0.0
23/09:00pm 26.8 25.2 19.2 63 4.9 NE 26 41 14 22 1014.8 1013.6 0.0
23/08:30pm 27.7 27.0 18.7 58 5.8 NE 20 32 11 17 1014.3 1013.1 0.0
23/08:00pm 29.1 27.4 18.2 51 7.0 NE 24 39 13 21 1013.6 1012.5 0.0
23/07:30pm 30.6 28.6 17.3 45 8.5 NE 24 35 13 19 1012.9 1011.8 0.0
23/07:00pm 31.3 29.3 12.6 31 11.2 ENE 15 24 8 13 1012.5 1011.4 0.0
23/06:30pm 32.2 30.8 13.4 32 11.4 ENE 13 17 7 9 1012.3 1011.2 0.0
23/06:00pm 33.4 31.8 14.0 31 11.9 NNE 15 20 8 11 1012.1 1011.0 0.0
23/05:30pm 34.5 32.7 14.4 30 12.5 NNE 17 28 9 15 1012.0 1010.9 0.0
23/05:00pm 35.0 32.6 14.3 29 12.9 NNE 20 30 11 16 1011.9 1010.8 0.0
23/04:30pm 35.1 34.0 14.4 29 12.9 NNE 13 24 7 13 1011.8 1010.7 0.0
23/04:00pm 35.2 33.0 15.0 30 12.7 NNE 20 28 11 15 1011.9 1010.8 0.0
23/03:30pm 35.2 33.4 14.5 29 12.9 NE 17 28 9 15 1012.3 1011.2 0.0
23/03:00pm 35.1 33.5 14.9 29 12.7 NE 17 28 9 15 1012.8 1011.7 0.0
23/02:30pm 34.6 33.8 14.0 29 12.7 E 11 19 6 10 1013.2 1012.1 0.0
23/02:00pm 35.7 33.9 14.4 28 13.3 NE 17 26 9 14 1013.7 1012.6 0.0
23/01:30pm 35.0 33.2 13.2 27 13.3 NE 15 24 8 13 1014.4 1013.2 0.0
23/01:00pm 33.1 32.3 16.0 35 10.8 ENE 15 24 8 13 1014.9 1013.7 0.0
23/12:30pm 33.8 32.8 16.6 35 11.0 ENE 17 24 9 13 1015.4 1014.3 0.0
23/12:00pm 31.7 31.1 15.6 37 10.1 E 13 20 7 11 1015.9 1014.8 0.0
23/11:30am 31.2 31.3 16.4 41 9.4 E 11 20 6 11 1016.4 1015.3 0.0
23/11:00am 30.7 31.7 17.7 45 8.3 NE 9 28 5 15 1016.7 1015.6 0.0
23/10:30am 30.8 30.2 18.5 47 8.0 N 19 26 10 14 1017.2 1016.1 0.0
23/10:00am 29.6 30.2 18.7 52 7.1 NNE 13 22 7 12 1017.5 1016.4 0.0
23/09:30am 28.5 29.0 18.3 54 6.6 NNE 13 20 7 11 1017.7 1016.6 0.0
23/09:00am 28.5 29.2 18.9 56 6.2 ENE 13 20 7 11 1017.7 1016.6 0.0
23/08:30am 27.3 27.9 19.4 62 5.1 NE 15 20 8 11 1017.8 1016.7 0.0
23/08:00am 25.5 26.1 19.4 69 3.9 NNE 15 20 8 11 1017.7 1016.6 0.0
23/07:30am 26.7 27.2 20.8 70 3.9 NE 19 24 10 13 1017.4 1016.3 0.0
23/07:00am 24.8 25.6 20.7 78 2.7 NE 17 26 9 14 1017.2 1016.1 0.0
23/06:30am 24.9 26.1 20.6 77 2.8 NE 15 20 8 11 1016.9 1015.8 0.0
23/06:00am 23.6 26.3 20.7 84 1.9 NE 7 11 4 6 1016.5 1015.4 0.0
23/05:30am 22.3 24.0 20.2 88 1.4 NE 11 13 6 7 1016.0 1014.9 0.0
23/05:00am 22.3 23.6 20.2 88 1.4 NE 13 17 7 9 1015.6 1014.5 0.0
23/04:30am 22.6 23.9 20.1 86 1.6 ENE 13 17 7 9 1015.3 1014.2 0.0
23/04:00am 22.7 24.0 20.2 86 1.6 NE 13 19 7 10 1015.0 1013.8 0.0
23/03:30am 23.0 24.0 20.3 85 1.8 NE 15 22 8 12 1014.8 1013.6 0.0
23/03:00am 23.1 23.8 20.4 85 1.8 NE 17 24 9 13 1014.8 1013.6 0.0
23/02:30am 23.2 24.2 20.2 83 2.0 NE 15 22 8 12 1014.5 1013.3 0.0
23/02:00am 23.5 23.8 20.4 83 2.0 NE 19 24 10 13 1014.4 1013.2 0.0
23/01:30am 23.5 24.4 20.0 81 2.3 NE 15 19 8 10 1014.7 1013.5 0.0
23/01:00am 23.7 23.9 19.4 77 2.8 NE 17 20 9 11 1014.6 1013.4 0.0
23/12:30am 24.2 24.3 19.1 73 3.3 NE 17 22 9 12 1014.7 1013.5 0.0
23/12:00am 24.5 24.5 18.9 71 3.6 NE 17 26 9 14 1014.9 1013.7 0.0
 
Date/Time
EST
Temp
°C
App
Temp
°C
Dew
Point
Rel
Hum
%
Delta-T
°C
Wind Press
QNH
hPa
Press
MSL
hPa
Rain
since 9 am
mm
Dir
 
Spd
km/h
Gust
km/h
Spd
kts
Gust
kts
22/11:30pm 25.0 24.3 18.2 66 4.3 NE 19 24 10 13 1015.0 1013.8 0.0
22/11:00pm 25.3 24.8 17.7 62 4.8 NE 17 20 9 11 1015.0 1013.8 0.0
22/10:30pm 26.0 24.8 17.6 60 5.3 NE 20 28 11 15 1015.0 1013.8 0.0
22/10:00pm 26.6 26.1 17.7 58 5.6 NNE 17 24 9 13 1015.1 1013.9 0.0
22/09:30pm 27.1 25.1 17.3 55 6.2 NNE 24 30 13 16 1014.6 1013.4 0.0
22/09:00pm 28.0 25.8 16.9 51 7.0 NE 24 32 13 17 1014.2 1013.0 0.0
22/08:30pm 28.9 28.1 18.1 52 6.9 NE 19 26 10 14 1013.5 1012.4 0.0
22/08:00pm 30.0 29.2 18.4 49 7.5 NNE 20 28 11 15 1012.7 1011.6 0.0
22/07:30pm 31.3 31.1 18.6 46 8.3 NNE 17 22 9 12 1012.0 1010.9 0.0
22/07:00pm 31.3 31.6 17.9 44 8.7 NE 13 15 7 8 1011.5 1010.4 0.0
22/06:30pm 32.7 32.9 17.7 40 9.7 NE 13 17 7 9 1011.3 1010.2 0.0
22/06:00pm 33.8 33.4 17.1 37 10.8 NE 15 20 8 11 1011.1 1010.0 0.0
22/05:30pm 35.3 34.5 17.0 33 11.8 ENE 17 22 9 12 1010.9 1009.8 0.0
22/05:00pm 36.0 35.2 17.2 33 12.2 NE 17 28 9 15 1010.5 1009.3 0.0
22/04:30pm 36.2 34.7 16.4 31 12.7 NE 19 32 10 17 1010.2 1009.0 0.0
22/04:00pm 36.1 34.6 15.2 28 13.2 NE 17 26 9 14 1010.4 1009.2 0.0
22/03:30pm 37.0 35.4 16.0 28 13.4 NE 19 28 10 15 1010.8 1009.7 0.0
22/03:00pm 36.5 35.7 16.1 29 13.1 E 15 20 8 11 1011.2 1010.1 0.0
22/02:30pm 36.6 36.4 16.7 30 12.8 ENE 13 20 7 11 1011.5 1010.4 0.0
22/02:00pm 35.9 35.5 16.1 30 12.7 ENE 13 26 7 14 1011.9 1010.8 0.0
22/01:30pm 35.0 34.1 15.8 31 12.2 NNE 15 20 8 11 1012.4 1011.3 0.0
22/01:00pm 35.0 34.8 16.8 34 11.7 NNE 13 24 7 13 1012.9 1011.8 0.0
22/12:30pm 34.9 34.1 17.2 35 11.4 ENE 17 30 9 16 1013.3 1012.2 0.0
22/12:00pm 33.4 32.6 17.1 37 10.5 ENE 17 26 9 14 1014.1 1012.9 0.0
22/11:30am 33.7 34.3 17.8 38 10.3 NNE 11 24 6 13 1014.7 1013.5 0.0
22/11:00am 32.9 32.6 18.3 42 9.5 ENE 17 20 9 11 1015.3 1014.2 0.0
22/10:30am 31.9 32.9 17.8 43 9.1 NE 9 19 5 10 1015.8 1014.7 0.0
22/10:00am 30.7 31.2 18.4 47 8.0 N 13 24 7 13 1016.1 1015.0 0.0
22/09:00am 28.6 28.1 18.7 55 6.4 N 19 28 10 15 1016.6 1015.5 0.0
22/08:30am 27.9 26.7 17.4 52 6.7 N 20 32 11 17 1016.4 1015.3 0.0
22/08:00am 27.9 28.2 19.7 61 5.4 NNE 17 26 9 14 1016.5 1015.4 0.0
22/07:30am 26.4 26.1 19.5 66 4.5 NNE 20 28 11 15 1016.3 1015.2 0.0
22/07:00am 25.3 24.9 19.4 70 3.8 N 20 28 11 15 1015.8 1014.7 0.0
22/06:30am 24.0 23.9 19.5 76 2.9 NE 19 24 10 13 1015.6 1014.5 0.0
22/06:00am 24.0 25.2 19.9 78 2.7 NE 13 19 7 10 1015.2 1014.0 0.0
22/05:30am 23.2 24.7 19.8 81 2.2 NE 11 15 6 8 1014.7 1013.5 0.0
22/05:00am 22.9 23.6 19.7 82 2.1 NE 15 22 8 12 1014.1 1012.9 0.0
22/04:30am 22.9 23.7 19.9 83 1.9 ENE 15 19 8 10 1013.8 1012.7 0.0
22/04:00am 22.7 23.1 19.9 84 1.8 NE 17 20 9 11 1013.3 1012.2 0.0
22/03:30am 22.5 24.1 19.9 85 1.7 NE 11 15 6 8 1013.3 1012.2 0.0
22/03:00am 23.2 24.3 19.6 80 2.3 NNE 13 17 7 9 1013.3 1012.2 0.0
22/02:30am 23.3 25.5 19.5 79 2.4 ENE 7 13 4 7 1013.8 1012.7 0.0
22/02:00am 22.9 23.8 19.3 80 2.3 NE 13 17 7 9 1013.1 1012.0 0.0
22/01:30am 22.9 23.3 19.1 79 2.4 NE 15 17 8 9 1013.2 1012.1 0.0
22/01:00am 23.4 24.1 18.9 76 2.9 NE 13 20 7 11 1013.5 1012.4 0.0
22/12:30am 23.7 23.5 18.6 73 3.2 NE 17 20 9 11 1013.6 1012.5 0.0
22/12:00am 23.8 23.4 18.0 70 3.7 NE 17 24 9 13 1013.8 1012.7 0.0
 
Date/Time
EST
Temp
°C
App
Temp
°C
Dew
Point
Rel
Hum
%
Delta-T
°C
Wind Press
QNH
hPa
Press
MSL
hPa
Rain
since 9 am
mm
Dir
 
Spd
km/h
Gust
km/h
Spd
kts
Gust
kts
21/11:30pm 24.1 23.1 17.6 67 4.1 NE 19 28 10 15 1013.7 1012.6 0.0
21/11:00pm 24.1 23.6 16.9 64 4.5 NE 15 19 8 10 1013.9 1012.8 0.0
21/10:30pm 24.7 23.6 16.4 60 5.1 NE 17 22 9 12 1014.3 1013.1 0.0

Other Formats:

Comma delimited format used in spreadsheet applications
http://www.bom.gov.au/fwo/IDQ60801/IDQ60801.94398.axf

JavaScript Object Notation format (JSON) in row-major order
http://www.bom.gov.au/fwo/IDQ60801/IDQ60801.94398.json